Time;durP1;ratioP1;P1;durP2;ratioP2;P2;SDS_P1;SDS_P2;PMS_P1;PMS_P2;Temp;Humidity;BMP_temperature;BMP_pressure;BME280_temperature;BME280_humidity;BME280_pressure;Samples;Min_cycle;Max_cycle;Signal;HPM_P1;HPM_P2
2021/10/18 00:01:33;;;;;;;3.97;1.60;;;;;;;12.80;100.00;99878.56;5091504;28;20052;-64
2021/10/18 00:04:36;;;;;;;2.45;1.52;;;;;;;12.74;100.00;99877.75;5092243;28;20043;-64
2021/10/18 00:07:39;;;;;;;1.80;1.40;;;;;;;12.73;100.00;99871.38;5092714;28;20051;-64
2021/10/18 00:10:42;;;;;;;7.93;2.00;;;;;;;12.67;100.00;99867.00;5092640;28;20503;-64
2021/10/18 00:13:45;;;;;;;4.75;1.35;;;;;;;12.60;100.00;99865.41;5092707;28;20088;-64
2021/10/18 00:16:48;;;;;;;5.00;1.92;;;;;;;12.57;100.00;99862.81;5092512;28;20464;-62
2021/10/18 00:19:52;;;;;;;2.60;1.25;;;;;;;12.54;100.00;99872.19;5092768;28;20128;-64
2021/10/18 00:22:55;;;;;;;1.63;1.50;;;;;;;12.50;100.00;99868.81;5091976;28;20097;-64
2021/10/18 00:25:58;;;;;;;4.05;1.25;;;;;;;12.47;100.00;99870.56;5092821;28;20094;-64
2021/10/18 00:29:01;;;;;;;5.40;1.38;;;;;;;12.44;100.00;99863.16;5092915;28;20553;-65
2021/10/18 00:32:05;;;;;;;6.90;1.85;;;;;;;12.33;100.00;99862.22;5091043;28;20047;-64
2021/10/18 00:35:09;;;;;;;8.18;2.05;;;;;;;12.34;100.00;99869.38;5096512;28;20055;-64
2021/10/18 00:38:12;;;;;;;5.57;2.80;;;;;;;12.38;100.00;99879.09;5096527;28;20101;-63
2021/10/18 00:41:17;;;;;;;5.78;1.15;;;;;;;12.37;100.00;99879.53;5096265;28;20047;-64
2021/10/18 00:44:20;;;;;;;4.07;1.98;;;;;;;12.34;100.00;99884.09;5095506;28;20097;-63
2021/10/18 00:47:23;;;;;;;8.43;2.55;;;;;;;12.32;100.00;99881.03;5096314;28;20101;-64
2021/10/18 00:50:26;;;;;;;3.65;1.60;;;;;;;12.29;100.00;99886.81;5096019;28;20043;-62
2021/10/18 00:53:29;;;;;;;10.68;2.05;;;;;;;12.26;100.00;99882.22;5096104;28;20046;-63
2021/10/18 00:56:32;;;;;;;5.38;2.17;;;;;;;12.21;100.00;99877.31;5096331;28;20137;-64
2021/10/18 00:59:36;;;;;;;3.78;1.45;;;;;;;12.14;100.00;99876.47;5095993;28;20514;-63
2021/10/18 01:02:39;;;;;;;7.35;2.13;;;;;;;12.08;100.00;99878.38;5095922;28;20055;-64
2021/10/18 01:05:42;;;;;;;3.28;1.17;;;;;;;12.06;100.00;99868.97;5095781;28;20043;-64
2021/10/18 01:08:45;;;;;;;5.72;2.20;;;;;;;11.99;100.00;99878.53;5095872;28;20450;-63
2021/10/18 01:11:48;;;;;;;10.05;2.33;;;;;;;11.98;100.00;99879.75;5095441;28;20035;-63
2021/10/18 01:14:51;;;;;;;10.93;2.50;;;;;;;11.96;100.00;99861.97;5094824;28;20123;-63
2021/10/18 01:17:55;;;;;;;5.22;2.20;;;;;;;11.95;100.00;99863.22;5095122;28;20039;-63
2021/10/18 01:20:58;;;;;;;6.72;1.40;;;;;;;11.94;100.00;99861.69;5084309;28;20039;-64
2021/10/18 01:24:01;;;;;;;7.65;2.05;;;;;;;11.92;100.00;99867.75;5065156;28;20139;-63
2021/10/18 01:27:05;;;;;;;23.25;1.90;;;;;;;11.91;100.00;99869.00;5064133;28;20035;-63
2021/10/18 01:30:08;;;;;;;5.90;1.92;;;;;;;11.87;100.00;99868.44;5065618;28;20047;-64
2021/10/18 01:33:11;;;;;;;7.05;1.48;;;;;;;11.90;100.00;99856.31;5065648;28;20062;-63
2021/10/18 01:36:14;;;;;;;1.63;1.52;;;;;;;11.88;100.00;99852.47;5066019;28;20491;-63
2021/10/18 01:39:17;;;;;;;4.72;1.85;;;;;;;11.86;100.00;99844.59;5066122;28;20043;-63
2021/10/18 01:42:20;;;;;;;3.47;2.00;;;;;;;11.82;100.00;99832.84;5065505;28;20745;-64
2021/10/18 01:45:23;;;;;;;6.03;2.15;;;;;;;11.82;100.00;99855.19;5065477;28;20104;-63
2021/10/18 01:48:26;;;;;;;15.60;2.10;;;;;;;11.81;100.00;99836.88;5064550;28;20085;-63
2021/10/18 01:51:29;;;;;;;4.88;1.83;;;;;;;11.80;100.00;99838.13;5064892;28;20121;-63
2021/10/18 01:54:32;;;;;;;4.30;2.25;;;;;;;11.77;100.00;99825.16;5063826;28;20058;-63
2021/10/18 01:57:37;;;;;;;3.95;1.55;;;;;;;11.75;100.00;99832.47;5064297;28;20776;-63
2021/10/18 02:00:42;;;;;;;5.97;2.38;;;;;;;11.69;100.00;99835.19;5064686;28;20105;-64
2021/10/18 02:03:45;;;;;;;7.72;2.22;;;;;;;11.68;100.00;99839.22;5064110;28;20051;-63
2021/10/18 02:06:48;;;;;;;5.05;2.35;;;;;;;11.67;100.00;99848.09;5063312;28;20043;-64
2021/10/18 02:09:53;;;;;;;5.38;2.53;;;;;;;11.73;100.00;99841.34;5063661;28;20170;-63
2021/10/18 02:12:57;;;;;;;6.13;1.67;;;;;;;11.73;100.00;99832.97;5063529;28;20097;-64
2021/10/18 02:16:00;;;;;;;2.50;2.30;;;;;;;11.78;100.00;99832.25;5063920;28;20044;-63
2021/10/18 02:19:03;;;;;;;6.65;2.45;;;;;;;11.82;100.00;99826.50;5063614;28;20124;-64
2021/10/18 02:22:06;;;;;;;4.60;2.25;;;;;;;11.88;100.00;99842.06;5062104;28;20043;-62
2021/10/18 02:25:12;;;;;;;7.32;2.25;;;;;;;11.86;100.00;99844.59;5062620;28;20035;-63
2021/10/18 02:28:15;;;;;;;12.75;3.78;;;;;;;11.88;100.00;99836.50;5063700;28;20067;-63
2021/10/18 02:31:19;;;;;;;4.50;2.10;;;;;;;11.90;100.00;99839.56;5062375;28;20546;-63
2021/10/18 02:34:22;;;;;;;5.95;2.25;;;;;;;11.92;100.00;99842.63;5062833;28;20047;-63
2021/10/18 02:37:25;;;;;;;2.33;1.65;;;;;;;11.97;100.00;99843.97;5062563;28;20039;-62
2021/10/18 02:40:28;;;;;;;10.90;3.88;;;;;;;12.03;100.00;99848.38;5062843;28;20097;-63
2021/10/18 02:43:31;;;;;;;8.65;1.88;;;;;;;12.09;100.00;99843.66;5062599;28;20273;-63
2021/10/18 02:46:34;;;;;;;4.88;1.77;;;;;;;12.13;100.00;99841.41;5062703;28;20113;-64
2021/10/18 02:49:37;;;;;;;4.55;2.80;;;;;;;12.15;100.00;99815.78;5063115;28;20116;-63
2021/10/18 02:52:40;;;;;;;7.93;2.78;;;;;;;12.17;100.00;99805.69;5062459;28;20047;-64
2021/10/18 02:55:43;;;;;;;5.07;2.55;;;;;;;12.21;100.00;99762.84;5062376;28;20032;-63
2021/10/18 02:58:46;;;;;;;2.85;2.17;;;;;;;12.18;100.00;99762.56;5062610;28;20612;-63
2021/10/18 03:01:49;;;;;;;5.05;1.90;;;;;;;12.15;100.00;99771.91;5062163;28;20535;-63
2021/10/18 03:04:52;;;;;;;6.15;2.03;;;;;;;12.17;100.00;99786.13;5064248;28;20761;-62
2021/10/18 03:07:55;;;;;;;12.27;2.40;;;;;;;12.19;100.00;99777.28;5062954;28;20093;-63
2021/10/18 03:10:57;;;;;;;10.85;2.63;;;;;;;12.25;100.00;99780.16;5062829;28;20503;-64
2021/10/18 03:14:00;;;;;;;8.63;2.00;;;;;;;12.29;100.00;99797.44;5061041;28;20290;-63
2021/10/18 03:17:04;;;;;;;15.98;4.00;;;;;;;12.34;100.00;99799.56;5061470;28;20085;-63
2021/10/18 03:20:08;;;;;;;8.80;2.80;;;;;;;12.38;100.00;99783.34;5062727;28;20851;-63
2021/10/18 03:23:11;;;;;;;7.70;1.67;;;;;;;12.50;100.00;99785.00;5062472;28;20692;-63
2021/10/18 03:26:15;;;;;;;6.28;2.53;;;;;;;12.60;100.00;99776.00;5061978;28;20055;-63
2021/10/18 03:29:18;;;;;;;6.45;2.53;;;;;;;12.68;100.00;99781.91;5061969;28;20518;-63
2021/10/18 03:32:21;;;;;;;6.80;3.10;;;;;;;12.71;100.00;99790.06;5061833;28;20108;-63
2021/10/18 03:35:24;;;;;;;7.40;2.30;;;;;;;12.74;100.00;99788.34;5062584;28;20691;-63
2021/10/18 03:38:27;;;;;;;18.63;4.38;;;;;;;12.78;100.00;99784.06;5063337;28;20031;-63
2021/10/18 03:41:30;;;;;;;5.15;2.33;;;;;;;12.85;100.00;99782.84;5064535;28;20031;-63
2021/10/18 03:44:33;;;;;;;12.27;3.35;;;;;;;12.91;100.00;99776.06;5064106;28;20276;-63
2021/10/18 03:47:36;;;;;;;11.13;4.13;;;;;;;12.95;100.00;99770.25;5063458;28;20705;-63
2021/10/18 03:50:39;;;;;;;12.80;3.17;;;;;;;12.94;100.00;99760.34;5062737;28;20813;-63
2021/10/18 03:53:42;;;;;;;12.20;2.92;;;;;;;12.94;100.00;99774.31;5062256;28;20109;-64
2021/10/18 03:56:45;;;;;;;13.25;3.88;;;;;;;13.00;100.00;99772.34;5062426;28;20113;-63
2021/10/18 03:59:48;;;;;;;6.60;2.00;;;;;;;13.07;100.00;99757.94;5062738;28;20424;-64
2021/10/18 04:02:51;;;;;;;8.10;3.30;;;;;;;13.09;100.00;99769.41;5062110;28;20075;-63
2021/10/18 04:05:53;;;;;;;12.88;3.55;;;;;;;13.12;100.00;99778.84;5062898;28;20187;-64
2021/10/18 04:08:57;;;;;;;12.55;4.43;;;;;;;13.11;100.00;99794.84;5066042;28;20739;-64
2021/10/18 04:12:00;;;;;;;10.80;2.83;;;;;;;13.14;100.00;99777.09;5065791;28;20406;-64
2021/10/18 04:15:04;;;;;;;9.85;3.13;;;;;;;13.16;100.00;99774.56;5065618;28;20463;-64
2021/10/18 04:18:07;;;;;;;7.38;3.45;;;;;;;13.15;100.00;99784.19;5065496;28;20318;-64
2021/10/18 04:21:10;;;;;;;8.00;2.40;;;;;;;13.12;100.00;99774.03;5065179;28;20684;-63
2021/10/18 04:24:13;;;;;;;6.65;2.45;;;;;;;13.06;100.00;99781.56;5066000;28;20043;-64
2021/10/18 04:27:16;;;;;;;14.85;3.50;;;;;;;13.02;100.00;99786.59;5065936;28;20446;-63
2021/10/18 04:30:19;;;;;;;22.50;3.80;;;;;;;12.98;100.00;99763.69;5067409;28;20059;-63
2021/10/18 04:33:22;;;;;;;11.20;3.70;;;;;;;12.99;100.00;99759.63;5066160;28;20126;-63
2021/10/18 04:36:27;;;;;;;6.03;2.65;;;;;;;12.95;100.00;99770.25;5066321;28;20027;-63
2021/10/18 04:39:30;;;;;;;10.52;3.53;;;;;;;12.93;100.00;99778.34;5067902;28;20035;-64
2021/10/18 04:42:33;;;;;;;13.23;3.88;;;;;;;12.89;100.00;99800.94;5066911;28;20028;-64
2021/10/18 04:45:38;;;;;;;8.50;3.00;;;;;;;12.92;100.00;99794.38;5066484;28;20039;-63
2021/10/18 04:48:41;;;;;;;12.88;3.63;;;;;;;12.92;100.00;99776.84;5067131;28;20172;-63
2021/10/18 04:51:45;;;;;;;5.13;2.47;;;;;;;12.90;100.00;99782.16;5067157;28;20075;-63
2021/10/18 04:54:48;;;;;;;13.00;3.20;;;;;;;12.92;100.00;99782.44;5067725;28;20133;-63
2021/10/18 04:57:57;;;;;;;6.00;2.33;;;;;;;12.93;100.00;99767.19;5067953;28;20039;-63
2021/10/18 05:01:00;;;;;;;10.95;3.85;;;;;;;12.91;100.00;99745.31;5067765;28;20519;-62
2021/10/18 05:04:03;;;;;;;9.15;2.15;;;;;;;12.88;100.00;99749.13;5068114;28;20054;-63
2021/10/18 05:07:05;;;;;;;7.60;2.42;;;;;;;12.86;100.00;99778.81;5066868;28;20135;-64
2021/10/18 05:10:11;;;;;;;7.95;2.78;;;;;;;12.88;100.00;99791.03;5063977;28;20071;-63
2021/10/18 05:13:15;;;;;;;7.50;2.88;;;;;;;12.88;100.00;99765.13;5064309;28;20051;-63
2021/10/18 05:16:18;;;;;;;13.73;4.25;;;;;;;12.88;100.00;99739.97;5064281;28;20392;-64
2021/10/18 05:19:22;;;;;;;8.40;2.53;;;;;;;12.86;100.00;99743.22;5063472;28;20387;-64
2021/10/18 05:22:24;;;;;;;7.78;2.50;;;;;;;12.90;100.00;99751.41;5065112;28;20080;-63
2021/10/18 05:25:28;;;;;;;10.00;2.30;;;;;;;12.86;100.00;99740.44;5064692;28;20035;-64
2021/10/18 05:28:32;;;;;;;9.85;2.92;;;;;;;12.87;100.00;99741.97;5064358;28;20385;-63
2021/10/18 05:31:35;;;;;;;11.27;3.60;;;;;;;12.87;100.00;99752.38;5056765;28;20047;-63
2021/10/18 05:34:38;;;;;;;8.95;4.60;;;;;;;12.90;100.00;99776.56;5057315;28;20051;-64
2021/10/18 05:37:42;;;;;;;20.38;4.63;;;;;;;12.89;100.00;99749.88;5059106;28;20120;-63
2021/10/18 05:40:47;;;;;;;7.63;3.95;;;;;;;12.91;100.00;99758.53;5060316;28;21226;-64
2021/10/18 05:43:50;;;;;;;14.00;4.72;;;;;;;12.90;100.00;99762.59;5060399;28;20507;-64
2021/10/18 05:46:53;;;;;;;6.03;3.00;;;;;;;12.85;100.00;99744.50;5060896;28;20326;-64
2021/10/18 05:49:58;;;;;;;9.13;3.13;;;;;;;12.88;100.00;99728.78;5060866;28;20108;-64
2021/10/18 05:53:02;;;;;;;8.10;3.22;;;;;;;12.76;100.00;99735.50;5064386;28;20270;-64
2021/10/18 05:56:06;;;;;;;8.73;2.90;;;;;;;12.70;100.00;99717.94;5063397;28;20067;-63
2021/10/18 05:59:10;;;;;;;15.18;3.08;;;;;;;12.62;100.00;99730.81;5063119;28;20043;-64
2021/10/18 06:02:13;;;;;;;10.52;3.22;;;;;;;12.54;100.00;99760.44;5063319;28;20148;-64
2021/10/18 06:05:17;;;;;;;9.10;2.47;;;;;;;12.43;100.00;99746.34;5063291;28;20379;-64
2021/10/18 06:08:20;;;;;;;9.38;3.15;;;;;;;12.39;100.00;99751.38;5063365;28;20557;-64
2021/10/18 06:11:23;;;;;;;13.40;3.83;;;;;;;12.42;100.00;99750.38;5058815;28;20252;-64
2021/10/18 06:14:26;;;;;;;7.53;2.70;;;;;;;12.46;100.00;99745.34;5059009;28;20096;-63
2021/10/18 06:17:29;;;;;;;9.23;3.75;;;;;;;12.49;100.00;99744.38;5062278;28;20047;-64
2021/10/18 06:20:33;;;;;;;4.32;2.55;;;;;;;12.54;100.00;99724.88;5062809;28;20557;-63
2021/10/18 06:23:36;;;;;;;6.85;1.63;;;;;;;12.59;100.00;99726.19;5062061;28;20153;-66
2021/10/18 06:26:39;;;;;;;6.95;2.75;;;;;;;12.60;100.00;99711.75;5060680;28;20130;-64
2021/10/18 06:29:43;;;;;;;8.18;3.35;;;;;;;12.63;100.00;99723.94;5060398;28;20058;-63
2021/10/18 06:32:46;;;;;;;12.05;3.42;;;;;;;12.67;100.00;99738.47;5060152;28;20283;-63
2021/10/18 06:35:50;;;;;;;12.93;3.55;;;;;;;12.70;100.00;99726.31;5061157;28;20057;-64
2021/10/18 06:38:53;;;;;;;10.60;3.03;;;;;;;12.74;100.00;99707.28;5060324;28;20564;-64
2021/10/18 06:41:56;;;;;;;5.55;1.90;;;;;;;12.77;100.00;99686.75;5060248;28;20028;-65
2021/10/18 06:44:59;;;;;;;13.10;2.42;;;;;;;12.78;100.00;99699.44;5060265;28;20159;-64
2021/10/18 06:48:02;;;;;;;10.15;2.45;;;;;;;12.82;100.00;99711.94;5057677;28;20111;-64
2021/10/18 06:51:06;;;;;;;7.10;2.50;;;;;;;12.83;100.00;99698.75;5057408;28;20123;-64
2021/10/18 06:54:08;;;;;;;8.57;1.70;;;;;;;12.80;100.00;99692.13;5057399;28;20105;-64
2021/10/18 06:57:11;;;;;;;15.05;3.13;;;;;;;12.84;100.00;99697.50;5057689;28;20036;-64
2021/10/18 07:00:15;;;;;;;13.50;3.65;;;;;;;12.81;100.00;99692.88;5057201;28;20097;-65
2021/10/18 07:03:18;;;;;;;5.28;2.78;;;;;;;12.87;100.00;99660.16;5061935;28;20071;-64
2021/10/18 07:06:21;;;;;;;8.38;2.55;;;;;;;12.84;100.00;99659.13;5061551;28;20085;-65
2021/10/18 07:09:24;;;;;;;11.27;3.13;;;;;;;12.79;100.00;99654.28;5061629;28;20039;-65
2021/10/18 07:12:29;;;;;;;11.40;3.60;;;;;;;12.73;100.00;99636.66;5057456;28;20302;-64
2021/10/18 07:15:32;;;;;;;8.55;3.53;;;;;;;12.74;100.00;99648.63;5060446;28;20051;-65
2021/10/18 07:18:35;;;;;;;8.52;3.95;;;;;;;12.76;100.00;99644.06;5059567;28;20543;-65
2021/10/18 07:21:39;;;;;;;7.63;3.60;;;;;;;12.82;100.00;99638.53;5059632;28;20319;-65
2021/10/18 07:24:43;;;;;;;6.82;2.50;;;;;;;12.84;100.00;99638.81;5058652;28;20039;-64
2021/10/18 07:27:46;;;;;;;7.88;3.17;;;;;;;12.88;100.00;99642.13;5058941;28;20113;-63
2021/10/18 07:30:49;;;;;;;4.35;2.08;;;;;;;12.84;100.00;99647.19;5057693;28;20039;-65
2021/10/18 07:33:57;;;;;;;12.45;3.53;;;;;;;12.83;100.00;99638.03;5057358;28;20047;-65
2021/10/18 07:37:01;;;;;;;5.35;1.90;;;;;;;12.90;100.00;99679.50;5057913;28;20039;-64
2021/10/18 07:40:05;;;;;;;11.55;3.40;;;;;;;12.98;100.00;99679.81;5060095;28;20093;-64
2021/10/18 07:43:10;;;;;;;13.20;3.00;;;;;;;12.96;100.00;99668.38;5061556;28;20038;-58
2021/10/18 07:46:16;;;;;;;9.10;3.00;;;;;;;13.01;100.00;99676.03;5062665;28;20068;-58
2021/10/18 07:49:19;;;;;;;9.00;2.53;;;;;;;13.03;100.00;99670.72;5062115;28;20062;-59
2021/10/18 07:52:22;;;;;;;4.18;2.03;;;;;;;13.08;100.00;99656.03;5061418;28;20050;-58
2021/10/18 07:55:29;;;;;;;15.20;3.38;;;;;;;13.15;100.00;99644.38;5061535;28;20460;-58
2021/10/18 07:58:32;;;;;;;7.05;1.95;;;;;;;13.19;100.00;99644.19;5061078;28;20093;-58
2021/10/18 08:01:36;;;;;;;9.32;3.75;;;;;;;13.25;100.00;99662.53;5060100;28;20117;-58
2021/10/18 08:04:40;;;;;;;12.80;4.47;;;;;;;13.28;100.00;99658.72;5056245;28;20051;-58
2021/10/18 08:07:50;;;;;;;19.52;5.18;;;;;;;13.36;100.00;99659.78;5056486;28;20058;-58
2021/10/18 08:10:53;;;;;;;9.50;3.55;;;;;;;13.42;100.00;99663.38;5060233;28;20047;-58
2021/10/18 08:13:57;;;;;;;8.25;4.22;;;;;;;13.51;100.00;99649.19;5056937;28;20047;-65
2021/10/18 08:17:04;;;;;;;15.48;4.68;;;;;;;13.57;100.00;99641.59;5056218;28;20034;-65
2021/10/18 08:20:08;;;;;;;14.90;5.07;;;;;;;13.65;100.00;99636.28;5061689;28;20271;-65
2021/10/18 08:23:12;;;;;;;11.88;2.97;;;;;;;13.68;100.00;99641.66;5061495;28;20059;-64
2021/10/18 08:26:22;;;;;;;16.98;4.78;;;;;;;13.77;100.00;99631.50;5064987;28;20119;-63
2021/10/18 08:29:34;;;;;;;11.90;4.07;;;;;;;13.77;100.00;99632.28;5062159;28;20089;-58
2021/10/18 08:32:40;;;;;;;12.20;4.22;;;;;;;13.80;100.00;99624.88;5063868;28;20173;-58
2021/10/18 08:35:43;;;;;;;9.63;3.40;;;;;;;13.80;100.00;99622.09;5062620;28;20093;-58
2021/10/18 08:38:46;;;;;;;17.52;5.53;;;;;;;13.82;100.00;99622.38;5061332;28;20047;-58
2021/10/18 08:42:03;;;;;;;11.40;2.70;;;;;;;13.85;100.00;99621.34;5060743;28;20039;-58
2021/10/18 08:45:06;;;;;;;17.52;5.47;;;;;;;13.86;100.00;99629.25;5063251;28;20119;-58
2021/10/18 08:48:10;;;;;;;9.38;3.17;;;;;;;13.97;100.00;99625.72;5061468;28;20067;-58
2021/10/18 08:51:18;;;;;;;11.63;3.63;;;;;;;14.02;100.00;99622.16;5066033;28;20039;-58
2021/10/18 08:54:23;;;;;;;15.10;2.90;;;;;;;14.10;100.00;99637.97;5063397;28;20160;-56
2021/10/18 08:57:34;;;;;;;8.05;2.22;;;;;;;14.19;100.00;99636.97;5068364;28;20067;-57
2021/10/18 09:00:46;;;;;;;7.10;2.22;;;;;;;14.25;100.00;99646.19;5064268;28;20400;-57
2021/10/18 09:03:49;;;;;;;13.43;4.13;;;;;;;14.31;100.00;99646.97;5065693;28;20038;-57
2021/10/18 09:07:11;;;;;;;16.17;2.83;;;;;;;14.39;100.00;99629.16;5067994;28;20051;-57
2021/10/18 09:10:15;;;;;;;9.73;4.40;;;;;;;14.48;100.00;99628.16;5069846;28;20307;-57
2021/10/18 09:13:19;;;;;;;9.00;4.15;;;;;;;14.73;100.00;99607.53;5066534;28;20101;-57
2021/10/18 09:16:35;;;;;;;9.13;3.00;;;;;;;14.83;100.00;99620.03;5065088;28;20047;-57
2021/10/18 09:19:38;;;;;;;17.60;4.50;;;;;;;14.74;100.00;99639.13;5064794;28;20030;-57
2021/10/18 09:22:40;;;;;;;6.45;3.05;;;;;;;14.58;100.00;99643.44;5064916;28;20100;-57
2021/10/18 09:25:44;;;;;;;17.23;3.90;;;;;;;14.57;100.00;99630.72;5066620;28;20058;-57
2021/10/18 09:28:52;;;;;;;8.18;3.70;;;;;;;14.63;100.00;99623.06;5069410;28;20552;-57
2021/10/18 09:32:01;;;;;;;10.85;3.95;;;;;;;14.63;100.00;99628.69;5069565;28;20093;-57
2021/10/18 09:35:05;;;;;;;8.65;3.38;;;;;;;14.61;100.00;99631.22;5068581;28;20698;-56
2021/10/18 09:38:10;;;;;;;6.25;2.38;;;;;;;14.64;100.00;99618.97;5065020;28;20051;-57
2021/10/18 09:41:24;;;;;;;11.02;3.30;;;;;;;14.68;100.00;99641.16;5066715;28;20036;-57
2021/10/18 10:52:57;;;;;;;12.95;3.90;;;;;;;15.27;100.00;99590.38;5064034;28;20105;-57
2021/10/18 10:56:15;;;;;;;12.25;3.88;;;;;;;15.33;100.00;99599.53;5064145;28;20581;-56
2021/10/18 10:59:28;;;;;;;9.20;3.65;;;;;;;15.27;100.00;99599.53;5064549;28;20685;-62
2021/10/18 11:02:33;;;;;;;7.72;2.95;;;;;;;15.32;100.00;99598.00;5061841;28;20097;-63
2021/10/18 11:05:54;;;;;;;18.27;3.85;;;;;;;15.32;100.00;99600.81;5063281;28;20035;-62
2021/10/18 11:08:57;;;;;;;9.07;3.40;;;;;;;15.34;100.00;99589.84;5063125;28;20101;-62
2021/10/18 11:12:01;;;;;;;7.85;2.13;;;;;;;15.33;100.00;99588.31;5062803;28;20365;-57
2021/10/18 11:15:08;;;;;;;12.75;3.95;;;;;;;15.30;100.00;99590.09;5064975;28;20189;-56
2021/10/18 11:18:15;;;;;;;9.35;3.10;;;;;;;15.28;100.00;99578.63;5063850;28;20121;-56
2021/10/18 11:21:23;;;;;;;5.72;2.55;;;;;;;15.33;100.00;99560.25;5066559;28;20035;-56
2021/10/18 11:24:40;;;;;;;12.35;2.80;;;;;;;15.36;100.00;99553.59;5065750;28;20408;-56
2021/10/18 11:27:53;;;;;;;8.57;3.45;;;;;;;15.36;100.00;99548.00;5069605;28;20487;-56
2021/10/18 11:31:05;;;;;;;8.30;2.75;;;;;;;15.33;100.00;99554.66;5063753;28;20381;-56
2021/10/18 11:34:21;;;;;;;14.60;2.67;;;;;;;15.36;100.00;99553.59;5065612;28;20135;-56
2021/10/18 11:37:30;;;;;;;14.68;4.95;;;;;;;15.33;100.00;99544.19;5063996;28;20126;-56
2021/10/18 11:40:43;;;;;;;10.80;3.58;;;;;;;15.36;100.00;99548.00;5063925;28;20078;-57
2021/10/18 11:43:59;;;;;;;7.07;2.92;;;;;;;15.29;100.00;99542.94;5063832;28;20369;-57
2021/10/18 11:47:02;;;;;;;11.52;3.72;;;;;;;15.33;100.00;99540.63;5060423;28;20062;-56
2021/10/18 11:50:36;;;;;;;17.45;4.50;;;;;;;15.43;100.00;99536.22;5066831;28;20039;-57
2021/10/18 11:53:42;;;;;;;17.90;4.55;;;;;;;15.47;100.00;99526.28;5052075;28;20062;-56
2021/10/18 11:56:45;;;;;;;11.20;3.30;;;;;;;15.50;100.00;99530.13;5043886;28;20036;-56
2021/10/18 11:59:48;;;;;;;8.55;3.08;;;;;;;15.46;100.00;99524.00;5046415;28;21134;-57
2021/10/18 12:03:01;;;;;;;12.48;3.42;;;;;;;15.45;100.00;99536.50;5064973;28;20109;-57
2021/10/18 12:06:10;;;;;;;14.13;2.60;;;;;;;15.66;100.00;99535.63;5065112;28;20115;-57
2021/10/18 12:09:27;;;;;;;12.27;4.22;;;;;;;15.64;100.00;99535.41;5065571;28;20246;-56
2021/10/18 12:12:37;;;;;;;19.55;4.47;;;;;;;15.63;100.00;99531.09;5064142;28;20125;-56
2021/10/18 12:16:08;;;;;;;6.25;2.75;;;;;;;15.68;100.00;99521.09;5044088;28;20051;-56
2021/10/18 12:19:13;;;;;;;5.85;2.63;;;;;;;15.68;100.00;99529.53;5044139;28;20900;-56
2021/10/18 12:23:05;;;;;;;10.68;3.65;;;;;;;15.69;100.00;99528.22;5047949;28;20035;-56
2021/10/18 12:26:17;;;;;;;8.68;2.53;;;;;;;15.72;100.00;99527.22;5066606;28;20122;-56
2021/10/18 12:29:23;;;;;;;5.60;2.65;;;;;;;15.69;100.00;99536.66;5076590;28;20043;-57
2021/10/18 12:46:26;;;;;;;9.57;3.72;;;;;;;15.90;100.00;99512.53;5070065;28;20055;-57
2021/10/18 12:49:34;;;;;;;8.18;3.05;;;;;;;15.95;100.00;99517.34;5063466;28;20109;-57
2021/10/18 12:53:27;;;;;;;6.15;2.15;;;;;;;15.99;100.00;99514.25;5061952;28;20264;-57
2021/10/18 12:57:24;;;;;;;;;;;;;;;15.93;100.00;99509.47;5073867;28;20548;-57
2021/10/18 13:00:39;;;;;;;8.40;2.70;;;;;;;16.02;100.00;99477.47;5061412;28;19969;-57
2021/10/18 13:04:01;;;;;;;9.43;2.20;;;;;;;16.08;100.00;99461.34;5068926;28;20660;-57
2021/10/18 13:07:20;;;;;;;4.53;1.88;;;;;;;16.29;100.00;99456.81;5074053;28;20241;-58
2021/10/18 13:10:50;;;;;;;4.07;1.67;;;;;;;16.46;100.00;99440.56;5078971;28;20046;-58
2021/10/18 13:13:54;;;;;;;5.20;2.70;;;;;;;16.54;100.00;99435.91;5059269;28;20096;-58
2021/10/18 13:17:05;;;;;;;5.18;2.00;;;;;;;16.59;100.00;99418.22;5070609;28;20046;-58
2021/10/18 13:20:09;;;;;;;7.15;1.95;;;;;;;16.68;100.00;99417.09;5058575;28;20030;-58
2021/10/18 13:23:44;;;;;;;10.80;2.10;;;;;;;16.77;100.00;99424.41;5065041;28;20038;-57
2021/10/18 13:31:03;;;;;;;3.72;1.60;;;;;;;16.82;100.00;99417.97;5061149;28;20129;-57
2021/10/18 13:34:06;;;;;;;4.53;1.67;;;;;;;16.87;100.00;99417.88;5059284;28;20063;-57
2021/10/18 13:37:10;;;;;;;3.17;1.65;;;;;;;16.93;100.00;99423.47;5063313;28;20106;-57
2021/10/18 13:40:15;;;;;;;8.25;0.98;;;;;;;16.98;100.00;99417.03;5060764;28;20668;-57
2021/10/18 13:43:18;;;;;;;10.45;2.00;;;;;;;17.10;100.00;99407.13;5063287;28;20033;-57
2021/10/18 13:46:22;;;;;;;4.40;1.77;;;;;;;17.12;100.00;99404.56;5079060;28;20132;-58
2021/10/18 13:49:41;;;;;;;1.92;0.68;;;;;;;17.24;100.00;99400.28;5085537;28;20055;-57
2021/10/18 13:53:02;;;;;;;1.13;0.35;;;;;;;17.40;100.00;99400.06;5071794;28;20051;-57
2021/10/18 13:56:37;;;;;;;2.78;1.30;;;;;;;17.69;100.00;99397.63;5085270;28;20058;-58
2021/10/18 14:00:06;;;;;;;1.98;0.82;;;;;;;17.73;100.00;99400.88;5088254;28;21027;-58
2021/10/18 14:03:22;;;;;;;2.00;0.77;;;;;;;17.61;100.00;99397.47;5073598;28;20659;-57
2021/10/18 14:06:26;;;;;;;3.35;0.68;;;;;;;17.62;100.00;99401.81;5069536;28;20027;-57
2021/10/18 14:09:29;;;;;;;1.08;0.52;;;;;;;17.69;100.00;99392.00;5069163;28;20039;-57
2021/10/18 14:12:33;;;;;;;4.13;1.00;;;;;;;17.86;100.00;99403.75;5068237;28;20148;-57
2021/10/18 14:15:37;;;;;;;4.95;0.90;;;;;;;17.85;100.00;99403.00;5068830;28;20035;-56
2021/10/18 14:18:40;;;;;;;1.40;0.75;;;;;;;17.85;100.00;99403.00;5069102;28;20123;-57
2021/10/18 14:21:43;;;;;;;3.88;0.50;;;;;;;17.80;100.00;99412.28;5067589;28;20261;-58
2021/10/18 14:24:46;;;;;;;3.35;0.63;;;;;;;17.60;100.00;99410.06;5067830;28;20039;-57
2021/10/18 14:27:49;;;;;;;0.95;0.25;;;;;;;17.60;100.00;99415.69;5067992;28;20371;-57
2021/10/18 14:30:53;;;;;;;5.25;0.90;;;;;;;17.55;100.00;99419.31;5066978;28;20043;-57
2021/10/18 14:33:56;;;;;;;1.00;0.30;;;;;;;17.80;100.00;99406.66;5067563;28;20443;-58
2021/10/18 14:36:59;;;;;;;1.98;0.47;;;;;;;17.82;100.00;99406.13;5067717;28;20039;-57
2021/10/18 14:40:04;;;;;;;1.65;0.75;;;;;;;17.81;100.00;99408.19;5067280;28;20034;-58
2021/10/18 14:43:07;;;;;;;3.10;0.75;;;;;;;17.76;100.00;99406.19;5069728;28;20031;-57
2021/10/18 14:46:10;;;;;;;2.15;0.50;;;;;;;17.75;100.00;99407.50;5067564;28;20084;-55
2021/10/18 14:49:13;;;;;;;2.08;0.45;;;;;;;17.73;100.00;99401.66;5069258;28;20089;-55
2021/10/18 14:52:17;;;;;;;2.47;0.90;;;;;;;17.71;100.00;99403.47;5068437;28;20045;-55
2021/10/18 14:55:20;;;;;;;3.22;0.65;;;;;;;17.71;100.00;99390.16;5067735;28;20127;-55
2021/10/18 14:58:24;;;;;;;1.05;0.60;;;;;;;17.71;100.00;99386.59;5068623;28;20100;-55
2021/10/18 15:01:27;;;;;;;4.88;0.52;;;;;;;17.76;100.00;99383.66;5065491;28;20050;-55
2021/10/18 15:04:30;;;;;;;0.32;0.32;;;;;;;17.83;100.00;99385.09;5066568;28;20043;-55
2021/10/18 15:07:33;;;;;;;0.93;0.20;;;;;;;17.78;100.00;99397.25;5067195;28;20266;-55
2021/10/18 15:10:45;;;;;;;1.00;0.10;;;;;;;17.76;100.00;99378.03;5067839;28;20160;-56
2021/10/18 15:14:04;;;;;;;3.10;0.55;;;;;;;17.71;100.00;99384.53;5071846;28;20046;-57
2021/10/18 15:17:18;;;;;;;0.68;0.10;;;;;;;17.69;100.00;99384.31;5073233;28;20112;-55
2021/10/18 15:20:24;;;;;;;0.63;0.10;;;;;;;17.70;100.00;99380.19;5073131;28;20078;-56
2021/10/18 15:23:28;;;;;;;1.15;0.30;;;;;;;17.72;100.00;99380.41;5070914;28;20878;-55
2021/10/18 15:26:32;;;;;;;1.23;0.10;;;;;;;17.71;100.00;99378.91;5066027;28;20553;-62
2021/10/18 15:29:35;;;;;;;2.17;0.57;;;;;;;17.64;100.00;99387.97;5069894;28;20046;-61
2021/10/18 15:32:42;;;;;;;2.30;0.20;;;;;;;17.91;100.00;99383.94;5066542;28;20352;-62
2021/10/18 15:35:48;;;;;;;3.95;0.15;;;;;;;17.84;100.00;99383.81;5063952;28;20224;-62
2021/10/18 15:38:54;;;;;;;1.95;0.47;;;;;;;17.81;100.00;99385.66;5062943;28;20101;-62
2021/10/18 15:41:58;;;;;;;3.67;0.55;;;;;;;17.79;100.00;99391.06;5066801;28;20092;-61
2021/10/18 15:45:18;;;;;;;2.05;0.10;;;;;;;17.77;100.00;99402.09;5070244;28;20372;-61
2021/10/18 15:52:38;;;;;;;0.75;0.30;;;;;;;17.78;100.00;99388.78;5067065;28;20255;-61